Glen Rose, Texas
Current Conditions -  °F | °C
As of 4:55 PM on Tuesday 25 Nov 2014 (Local Time) from KGDJ Reporting Station
Clear Clear  
Wind Chill: 60°   Ceiling: Unl
Heat Index: 60°   Visibility: 10mi
Dew Point: 27°   Wind: 7mph
Humidity: 28%   Direction: 250°WSW
Pressure: 30.19"   Gusts: NA
Location:  32.23°N, 97.76°W
Report Text: KGDJ 252255Z AUTO 25006KT 10SM CLR 16/M03 A3019 RMK AO2 T01581029
Loading
Personal Weather Stations






























Interactive Weather Map New forecast layout! Learn more

10-Day Weather Forecast

Advertisements
Track Severe Weather on mobile